Etusivu
METAR-TAF:

METAR-TAF

Lentoasemat :

Appleton Municipal Airport

Appleton, Minnesota, Yhdysvallat

Leveyspiiri: 45-13-39N, Pituuspiiri: 096-00-15W, korkeus merenpinnasta: 310 m

Tämänhetkinen sää

Tämä raportti tehtiin 7 minuuttia sitten, kello 04.50 UTC
tyyntä
Lämpötila 6°C
Kosteus 81%
Ilmanpaine 1021 hPa
Näkyvyys: 16.1 km

METAR: KAQP 230450Z AUTO 00000KT 10SM 06/03 A3016 RMK AO2

Aika: 23:57 (04:57 UTC)


TAF: puuttuu

Säähavainnot ja -ennusteet yli 4000 lentoasemalta (METAR- ja TAF-raportit).

Käytössä olevat sääasemat on merkitty karttaan keltaisilla ja punaisilla pisteillä.

Aseta hiiri pisteen päälle nähdäksesi sääaseman nimen.

Klikkaa sitten nähdäksesi säähavainnot ja -ennusteet.

Kartan vaihtaminen: klikkaa mustalla rastilla varustettuja vihreitä pisteitä, niin voit zoomata sisään; viivalla varustettua vihreää pistettä, niin voit zoomata ulos tai vihreitä nuolia, niin pääset viereisille kartoille.


METAR-TAF: